sensor_id;sensor_type;location;lat;lon;timestamp;P1;durP1;ratioP1;P2;durP2;ratioP2
16480;SDS011;44634;54.110;12.138;2023-06-10T00:01:10;4.73;;;1.83;;
16480;SDS011;44634;54.110;12.138;2023-06-10T00:03:38;6.30;;;2.30;;
16480;SDS011;44634;54.110;12.138;2023-06-10T00:06:07;6.10;;;2.30;;
16480;SDS011;44634;54.110;12.138;2023-06-10T00:08:35;3.50;;;1.90;;
16480;SDS011;44634;54.110;12.138;2023-06-10T00:11:03;3.07;;;2.10;;
16480;SDS011;44634;54.110;12.138;2023-06-10T00:13:31;4.43;;;2.13;;
16480;SDS011;44634;54.110;12.138;2023-06-10T00:15:59;4.20;;;2.03;;
16480;SDS011;44634;54.110;12.138;2023-06-10T00:18:28;3.77;;;2.13;;
16480;SDS011;44634;54.110;12.138;2023-06-10T00:20:57;3.33;;;1.90;;
16480;SDS011;44634;54.110;12.138;2023-06-10T00:23:30;10.53;;;2.50;;
16480;SDS011;44634;54.110;12.138;2023-06-10T00:26:04;4.93;;;2.57;;
16480;SDS011;44634;54.110;12.138;2023-06-10T00:28:32;4.30;;;2.13;;
16480;SDS011;44634;54.110;12.138;2023-06-10T00:31:00;4.03;;;2.00;;
16480;SDS011;44634;54.110;12.138;2023-06-10T00:33:29;2.87;;;1.90;;
16480;SDS011;44634;54.110;12.138;2023-06-10T00:35:57;2.80;;;1.77;;
16480;SDS011;44634;54.110;12.138;2023-06-10T00:38:25;4.37;;;1.90;;
16480;SDS011;44634;54.110;12.138;2023-06-10T00:40:53;2.57;;;1.50;;
16480;SDS011;44634;54.110;12.138;2023-06-10T00:43:21;2.07;;;1.73;;
16480;SDS011;44634;54.110;12.138;2023-06-10T00:45:48;2.43;;;2.23;;
16480;SDS011;44634;54.110;12.138;2023-06-10T00:48:17;4.90;;;2.37;;
16480;SDS011;44634;54.110;12.138;2023-06-10T00:50:47;3.77;;;1.83;;
16480;SDS011;44634;54.110;12.138;2023-06-10T00:53:16;4.23;;;2.00;;
16480;SDS011;44634;54.110;12.138;2023-06-10T00:55:44;3.07;;;1.90;;
16480;SDS011;44634;54.110;12.138;2023-06-10T00:58:12;2.87;;;1.50;;
16480;SDS011;44634;54.110;12.138;2023-06-10T01:00:40;3.93;;;1.77;;
16480;SDS011;44634;54.110;12.138;2023-06-10T01:03:08;2.53;;;2.10;;
16480;SDS011;44634;54.110;12.138;2023-06-10T01:05:36;3.27;;;1.80;;
16480;SDS011;44634;54.110;12.138;2023-06-10T01:08:09;3.43;;;1.80;;
16480;SDS011;44634;54.110;12.138;2023-06-10T01:10:47;4.10;;;1.73;;
16480;SDS011;44634;54.110;12.138;2023-06-10T01:13:20;7.30;;;2.20;;
16480;SDS011;44634;54.110;12.138;2023-06-10T01:15:50;6.63;;;2.07;;
16480;SDS011;44634;54.110;12.138;2023-06-10T01:18:19;5.27;;;1.83;;
16480;SDS011;44634;54.110;12.138;2023-06-10T01:20:48;3.23;;;1.60;;
16480;SDS011;44634;54.110;12.138;2023-06-10T01:23:18;4.37;;;1.87;;
16480;SDS011;44634;54.110;12.138;2023-06-10T01:25:47;4.30;;;1.73;;
16480;SDS011;44634;54.110;12.138;2023-06-10T01:28:22;3.70;;;1.70;;
16480;SDS011;44634;54.110;12.138;2023-06-10T01:30:55;4.80;;;2.03;;
16480;SDS011;44634;54.110;12.138;2023-06-10T01:33:35;5.07;;;1.60;;
16480;SDS011;44634;54.110;12.138;2023-06-10T01:36:05;3.10;;;1.90;;
16480;SDS011;44634;54.110;12.138;2023-06-10T01:38:36;1.73;;;1.47;;
16480;SDS011;44634;54.110;12.138;2023-06-10T01:41:09;6.37;;;1.90;;
16480;SDS011;44634;54.110;12.138;2023-06-10T01:43:39;3.43;;;1.80;;
16480;SDS011;44634;54.110;12.138;2023-06-10T01:46:07;7.47;;;2.10;;
16480;SDS011;44634;54.110;12.138;2023-06-10T01:48:36;3.83;;;1.80;;
16480;SDS011;44634;54.110;12.138;2023-06-10T01:51:05;3.23;;;2.00;;
16480;SDS011;44634;54.110;12.138;2023-06-10T01:53:33;5.40;;;2.10;;
16480;SDS011;44634;54.110;12.138;2023-06-10T01:56:02;2.20;;;1.77;;
16480;SDS011;44634;54.110;12.138;2023-06-10T01:58:30;5.03;;;1.60;;
16480;SDS011;44634;54.110;12.138;2023-06-10T02:00:58;4.13;;;1.90;;
16480;SDS011;44634;54.110;12.138;2023-06-10T02:03:26;3.97;;;1.63;;
16480;SDS011;44634;54.110;12.138;2023-06-10T02:05:54;4.17;;;1.83;;
16480;SDS011;44634;54.110;12.138;2023-06-10T02:08:22;5.20;;;2.10;;
16480;SDS011;44634;54.110;12.138;2023-06-10T02:10:49;3.67;;;1.67;;
16480;SDS011;44634;54.110;12.138;2023-06-10T02:13:18;4.63;;;1.97;;
16480;SDS011;44634;54.110;12.138;2023-06-10T02:15:46;3.10;;;2.20;;
16480;SDS011;44634;54.110;12.138;2023-06-10T02:18:14;1.87;;;1.77;;
16480;SDS011;44634;54.110;12.138;2023-06-10T02:20:42;4.10;;;2.03;;
16480;SDS011;44634;54.110;12.138;2023-06-10T02:23:10;3.97;;;2.07;;
16480;SDS011;44634;54.110;12.138;2023-06-10T02:25:37;5.10;;;1.87;;
16480;SDS011;44634;54.110;12.138;2023-06-10T02:28:06;6.47;;;1.80;;
16480;SDS011;44634;54.110;12.138;2023-06-10T02:30:38;2.53;;;1.67;;
16480;SDS011;44634;54.110;12.138;2023-06-10T02:33:07;3.20;;;1.50;;
16480;SDS011;44634;54.110;12.138;2023-06-10T02:35:37;3.63;;;1.87;;
16480;SDS011;44634;54.110;12.138;2023-06-10T02:38:05;2.90;;;1.60;;
16480;SDS011;44634;54.110;12.138;2023-06-10T02:40:33;3.23;;;1.70;;
16480;SDS011;44634;54.110;12.138;2023-06-10T02:43:01;5.63;;;1.70;;
16480;SDS011;44634;54.110;12.138;2023-06-10T02:45:29;2.77;;;1.70;;
16480;SDS011;44634;54.110;12.138;2023-06-10T02:47:58;4.73;;;1.90;;
16480;SDS011;44634;54.110;12.138;2023-06-10T02:50:26;5.13;;;1.90;;
16480;SDS011;44634;54.110;12.138;2023-06-10T02:52:54;3.60;;;1.90;;
16480;SDS011;44634;54.110;12.138;2023-06-10T02:55:21;4.57;;;1.77;;
16480;SDS011;44634;54.110;12.138;2023-06-10T02:57:52;3.07;;;1.70;;
16480;SDS011;44634;54.110;12.138;2023-06-10T03:00:21;6.53;;;1.97;;
16480;SDS011;44634;54.110;12.138;2023-06-10T03:02:49;3.27;;;1.70;;
16480;SDS011;44634;54.110;12.138;2023-06-10T03:05:19;6.57;;;1.80;;
16480;SDS011;44634;54.110;12.138;2023-06-10T03:07:48;2.97;;;1.90;;
16480;SDS011;44634;54.110;12.138;2023-06-10T03:10:16;5.53;;;2.40;;
16480;SDS011;44634;54.110;12.138;2023-06-10T03:12:44;3.70;;;2.00;;
16480;SDS011;44634;54.110;12.138;2023-06-10T03:15:12;2.70;;;1.30;;
16480;SDS011;44634;54.110;12.138;2023-06-10T03:17:40;2.17;;;1.60;;
16480;SDS011;44634;54.110;12.138;2023-06-10T03:20:09;2.40;;;1.60;;
16480;SDS011;44634;54.110;12.138;2023-06-10T03:22:39;4.37;;;1.97;;
16480;SDS011;44634;54.110;12.138;2023-06-10T03:25:07;4.57;;;1.90;;
16480;SDS011;44634;54.110;12.138;2023-06-10T03:27:40;3.80;;;1.90;;
16480;SDS011;44634;54.110;12.138;2023-06-10T03:30:09;4.53;;;1.80;;
16480;SDS011;44634;54.110;12.138;2023-06-10T03:32:38;3.63;;;1.70;;
16480;SDS011;44634;54.110;12.138;2023-06-10T03:35:07;3.57;;;2.00;;
16480;SDS011;44634;54.110;12.138;2023-06-10T03:37:36;3.67;;;1.80;;
16480;SDS011;44634;54.110;12.138;2023-06-10T03:40:06;5.23;;;2.53;;
16480;SDS011;44634;54.110;12.138;2023-06-10T03:42:36;2.37;;;1.73;;
16480;SDS011;44634;54.110;12.138;2023-06-10T03:45:04;2.93;;;1.73;;
16480;SDS011;44634;54.110;12.138;2023-06-10T03:47:33;3.47;;;1.83;;
16480;SDS011;44634;54.110;12.138;2023-06-10T03:50:02;2.90;;;1.70;;
16480;SDS011;44634;54.110;12.138;2023-06-10T03:52:31;3.37;;;1.70;;
16480;SDS011;44634;54.110;12.138;2023-06-10T03:54:58;5.47;;;1.87;;
16480;SDS011;44634;54.110;12.138;2023-06-10T03:57:28;5.23;;;1.83;;
16480;SDS011;44634;54.110;12.138;2023-06-10T03:59:55;4.03;;;1.97;;
16480;SDS011;44634;54.110;12.138;2023-06-10T04:02:23;2.13;;;1.67;;
16480;SDS011;44634;54.110;12.138;2023-06-10T04:04:51;2.73;;;1.87;;
16480;SDS011;44634;54.110;12.138;2023-06-10T04:07:19;3.23;;;1.93;;
16480;SDS011;44634;54.110;12.138;2023-06-10T04:09:47;3.70;;;2.07;;
16480;SDS011;44634;54.110;12.138;2023-06-10T04:12:15;4.67;;;1.90;;
16480;SDS011;44634;54.110;12.138;2023-06-10T04:14:45;5.50;;;1.83;;
16480;SDS011;44634;54.110;12.138;2023-06-10T04:17:13;2.67;;;1.80;;
16480;SDS011;44634;54.110;12.138;2023-06-10T04:19:41;4.10;;;2.47;;
16480;SDS011;44634;54.110;12.138;2023-06-10T04:22:09;5.97;;;2.20;;
16480;SDS011;44634;54.110;12.138;2023-06-10T04:24:36;4.13;;;1.93;;
16480;SDS011;44634;54.110;12.138;2023-06-10T04:27:04;3.63;;;1.73;;
16480;SDS011;44634;54.110;12.138;2023-06-10T04:29:33;5.07;;;1.93;;
16480;SDS011;44634;54.110;12.138;2023-06-10T04:32:03;8.60;;;2.40;;
16480;SDS011;44634;54.110;12.138;2023-06-10T04:34:33;5.23;;;1.90;;
16480;SDS011;44634;54.110;12.138;2023-06-10T04:37:01;4.83;;;2.30;;
16480;SDS011;44634;54.110;12.138;2023-06-10T04:39:29;2.87;;;1.93;;
16480;SDS011;44634;54.110;12.138;2023-06-10T04:41:56;4.27;;;1.80;;
16480;SDS011;44634;54.110;12.138;2023-06-10T04:44:24;4.20;;;1.80;;
16480;SDS011;44634;54.110;12.138;2023-06-10T04:46:52;5.40;;;2.13;;
16480;SDS011;44634;54.110;12.138;2023-06-10T04:49:22;2.27;;;2.03;;
16480;SDS011;44634;54.110;12.138;2023-06-10T04:51:50;4.00;;;2.10;;
16480;SDS011;44634;54.110;12.138;2023-06-10T04:54:18;8.03;;;2.20;;
16480;SDS011;44634;54.110;12.138;2023-06-10T04:56:46;4.50;;;2.17;;
16480;SDS011;44634;54.110;12.138;2023-06-10T04:59:14;3.87;;;2.10;;
16480;SDS011;44634;54.110;12.138;2023-06-10T05:01:41;4.53;;;2.20;;
16480;SDS011;44634;54.110;12.138;2023-06-10T05:04:09;5.70;;;2.37;;
16480;SDS011;44634;54.110;12.138;2023-06-10T05:06:39;5.50;;;2.40;;
16480;SDS011;44634;54.110;12.138;2023-06-10T05:09:06;2.97;;;2.07;;
16480;SDS011;44634;54.110;12.138;2023-06-10T05:11:34;2.97;;;2.33;;
16480;SDS011;44634;54.110;12.138;2023-06-10T05:14:02;3.67;;;2.17;;
16480;SDS011;44634;54.110;12.138;2023-06-10T05:16:30;7.30;;;2.43;;
16480;SDS011;44634;54.110;12.138;2023-06-10T05:18:58;3.03;;;1.90;;
16480;SDS011;44634;54.110;12.138;2023-06-10T05:21:26;6.67;;;2.50;;
16480;SDS011;44634;54.110;12.138;2023-06-10T05:23:55;4.40;;;2.03;;
16480;SDS011;44634;54.110;12.138;2023-06-10T05:26:23;6.70;;;2.27;;
16480;SDS011;44634;54.110;12.138;2023-06-10T05:28:51;4.20;;;2.23;;
16480;SDS011;44634;54.110;12.138;2023-06-10T05:31:19;8.90;;;2.47;;
16480;SDS011;44634;54.110;12.138;2023-06-10T05:33:47;4.03;;;2.37;;
16480;SDS011;44634;54.110;12.138;2023-06-10T05:36:15;5.40;;;2.40;;
16480;SDS011;44634;54.110;12.138;2023-06-10T05:38:42;4.10;;;2.33;;
16480;SDS011;44634;54.110;12.138;2023-06-10T05:41:11;5.17;;;2.47;;
16480;SDS011;44634;54.110;12.138;2023-06-10T05:43:39;5.90;;;2.50;;
16480;SDS011;44634;54.110;12.138;2023-06-10T05:46:07;5.77;;;2.20;;
16480;SDS011;44634;54.110;12.138;2023-06-10T05:48:35;6.53;;;2.90;;
16480;SDS011;44634;54.110;12.138;2023-06-10T05:51:03;5.00;;;2.53;;
16480;SDS011;44634;54.110;12.138;2023-06-10T05:53:31;6.43;;;2.60;;
16480;SDS011;44634;54.110;12.138;2023-06-10T05:55:59;5.37;;;2.60;;
16480;SDS011;44634;54.110;12.138;2023-06-10T05:58:28;2.87;;;2.30;;
16480;SDS011;44634;54.110;12.138;2023-06-10T06:00:56;2.43;;;2.13;;
16480;SDS011;44634;54.110;12.138;2023-06-10T06:03:23;4.07;;;2.43;;
16480;SDS011;44634;54.110;12.138;2023-06-10T06:05:51;4.37;;;2.70;;
16480;SDS011;44634;54.110;12.138;2023-06-10T06:08:19;6.63;;;2.50;;
16480;SDS011;44634;54.110;12.138;2023-06-10T06:10:47;6.97;;;2.47;;
16480;SDS011;44634;54.110;12.138;2023-06-10T06:13:15;7.57;;;2.40;;
16480;SDS011;44634;54.110;12.138;2023-06-10T06:15:44;6.03;;;2.37;;
16480;SDS011;44634;54.110;12.138;2023-06-10T06:18:12;4.40;;;2.67;;
16480;SDS011;44634;54.110;12.138;2023-06-10T06:20:40;6.53;;;2.30;;
16480;SDS011;44634;54.110;12.138;2023-06-10T06:23:07;5.77;;;2.90;;
16480;SDS011;44634;54.110;12.138;2023-06-10T06:25:36;6.70;;;2.97;;
16480;SDS011;44634;54.110;12.138;2023-06-10T06:28:05;5.30;;;2.70;;
16480;SDS011;44634;54.110;12.138;2023-06-10T06:30:33;5.60;;;2.70;;
16480;SDS011;44634;54.110;12.138;2023-06-10T06:33:02;5.97;;;2.67;;
16480;SDS011;44634;54.110;12.138;2023-06-10T06:35:30;10.90;;;2.80;;
16480;SDS011;44634;54.110;12.138;2023-06-10T06:37:59;4.87;;;2.83;;
16480;SDS011;44634;54.110;12.138;2023-06-10T06:40:26;3.77;;;2.60;;
16480;SDS011;44634;54.110;12.138;2023-06-10T06:42:54;6.07;;;2.20;;
16480;SDS011;44634;54.110;12.138;2023-06-10T06:45:22;6.23;;;2.83;;
16480;SDS011;44634;54.110;12.138;2023-06-10T06:47:50;4.37;;;2.40;;
16480;SDS011;44634;54.110;12.138;2023-06-10T06:50:19;4.97;;;2.40;;
16480;SDS011;44634;54.110;12.138;2023-06-10T06:52:47;6.03;;;3.17;;
16480;SDS011;44634;54.110;12.138;2023-06-10T06:55:15;5.63;;;2.57;;
16480;SDS011;44634;54.110;12.138;2023-06-10T06:57:42;2.73;;;2.10;;
16480;SDS011;44634;54.110;12.138;2023-06-10T07:00:10;3.50;;;2.63;;
16480;SDS011;44634;54.110;12.138;2023-06-10T07:02:39;8.93;;;2.87;;
16480;SDS011;44634;54.110;12.138;2023-06-10T07:05:07;2.97;;;2.63;;
16480;SDS011;44634;54.110;12.138;2023-06-10T07:07:37;7.47;;;3.93;;
16480;SDS011;44634;54.110;12.138;2023-06-10T07:10:05;6.00;;;2.60;;
16480;SDS011;44634;54.110;12.138;2023-06-10T07:12:34;5.27;;;2.43;;
16480;SDS011;44634;54.110;12.138;2023-06-10T07:15:02;7.80;;;4.20;;
16480;SDS011;44634;54.110;12.138;2023-06-10T07:17:30;5.90;;;2.90;;
16480;SDS011;44634;54.110;12.138;2023-06-10T07:19:58;2.60;;;2.23;;
16480;SDS011;44634;54.110;12.138;2023-06-10T07:22:26;4.20;;;2.43;;
16480;SDS011;44634;54.110;12.138;2023-06-10T07:24:55;7.57;;;2.70;;
16480;SDS011;44634;54.110;12.138;2023-06-10T07:27:22;6.00;;;2.83;;
16480;SDS011;44634;54.110;12.138;2023-06-10T07:29:51;6.47;;;2.87;;
16480;SDS011;44634;54.110;12.138;2023-06-10T07:32:19;5.43;;;3.37;;
16480;SDS011;44634;54.110;12.138;2023-06-10T07:34:48;5.50;;;2.73;;
16480;SDS011;44634;54.110;12.138;2023-06-10T07:37:16;3.30;;;2.70;;
16480;SDS011;44634;54.110;12.138;2023-06-10T07:39:45;4.50;;;2.50;;
16480;SDS011;44634;54.110;12.138;2023-06-10T07:42:15;5.97;;;3.47;;
16480;SDS011;44634;54.110;12.138;2023-06-10T07:44:43;5.53;;;3.03;;
16480;SDS011;44634;54.110;12.138;2023-06-10T07:47:10;6.87;;;3.40;;
16480;SDS011;44634;54.110;12.138;2023-06-10T07:49:38;6.17;;;2.83;;
16480;SDS011;44634;54.110;12.138;2023-06-10T07:52:08;3.23;;;2.93;;
16480;SDS011;44634;54.110;12.138;2023-06-10T07:54:35;6.77;;;3.37;;
16480;SDS011;44634;54.110;12.138;2023-06-10T07:57:03;4.93;;;3.63;;
16480;SDS011;44634;54.110;12.138;2023-06-10T07:59:34;3.57;;;2.90;;
16480;SDS011;44634;54.110;12.138;2023-06-10T08:02:02;5.50;;;3.00;;
16480;SDS011;44634;54.110;12.138;2023-06-10T08:04:30;4.10;;;2.90;;
16480;SDS011;44634;54.110;12.138;2023-06-10T08:06:58;4.83;;;2.87;;
16480;SDS011;44634;54.110;12.138;2023-06-10T08:09:26;3.27;;;2.93;;
16480;SDS011;44634;54.110;12.138;2023-06-10T08:11:55;4.33;;;3.27;;
16480;SDS011;44634;54.110;12.138;2023-06-10T08:14:22;8.03;;;3.00;;
16480;SDS011;44634;54.110;12.138;2023-06-10T08:16:52;5.67;;;3.57;;
16480;SDS011;44634;54.110;12.138;2023-06-10T08:19:20;6.57;;;3.17;;
16480;SDS011;44634;54.110;12.138;2023-06-10T08:21:47;5.60;;;3.10;;
16480;SDS011;44634;54.110;12.138;2023-06-10T08:24:15;5.60;;;2.87;;
16480;SDS011;44634;54.110;12.138;2023-06-10T08:26:45;7.97;;;3.23;;
16480;SDS011;44634;54.110;12.138;2023-06-10T08:29:13;7.43;;;3.40;;
16480;SDS011;44634;54.110;12.138;2023-06-10T08:31:41;4.63;;;3.30;;
16480;SDS011;44634;54.110;12.138;2023-06-10T08:34:11;6.10;;;3.10;;
16480;SDS011;44634;54.110;12.138;2023-06-10T08:36:38;5.13;;;3.57;;
16480;SDS011;44634;54.110;12.138;2023-06-10T08:39:06;4.17;;;2.77;;
16480;SDS011;44634;54.110;12.138;2023-06-10T08:41:34;6.83;;;3.30;;
16480;SDS011;44634;54.110;12.138;2023-06-10T08:44:09;9.43;;;3.07;;
16480;SDS011;44634;54.110;12.138;2023-06-10T08:46:45;5.20;;;2.77;;
16480;SDS011;44634;54.110;12.138;2023-06-10T08:49:17;5.60;;;3.20;;
16480;SDS011;44634;54.110;12.138;2023-06-10T08:51:47;5.43;;;2.93;;
16480;SDS011;44634;54.110;12.138;2023-06-10T08:54:20;4.23;;;2.83;;
16480;SDS011;44634;54.110;12.138;2023-06-10T08:56:52;3.37;;;3.07;;
16480;SDS011;44634;54.110;12.138;2023-06-10T08:59:22;5.47;;;2.90;;
16480;SDS011;44634;54.110;12.138;2023-06-10T09:01:52;10.57;;;7.83;;
16480;SDS011;44634;54.110;12.138;2023-06-10T09:04:23;4.77;;;3.03;;
16480;SDS011;44634;54.110;12.138;2023-06-10T09:06:51;5.57;;;2.93;;
16480;SDS011;44634;54.110;12.138;2023-06-10T09:09:21;4.83;;;3.40;;
16480;SDS011;44634;54.110;12.138;2023-06-10T09:11:50;3.50;;;3.10;;
16480;SDS011;44634;54.110;12.138;2023-06-10T09:14:18;5.40;;;3.20;;
16480;SDS011;44634;54.110;12.138;2023-06-10T09:16:45;4.87;;;3.27;;
16480;SDS011;44634;54.110;12.138;2023-06-10T09:19:15;6.13;;;3.40;;
16480;SDS011;44634;54.110;12.138;2023-06-10T09:21:46;4.40;;;3.17;;
16480;SDS011;44634;54.110;12.138;2023-06-10T09:24:13;3.50;;;3.20;;
16480;SDS011;44634;54.110;12.138;2023-06-10T09:26:42;4.83;;;3.07;;
16480;SDS011;44634;54.110;12.138;2023-06-10T09:29:12;4.63;;;3.77;;
16480;SDS011;44634;54.110;12.138;2023-06-10T09:31:39;7.50;;;3.23;;
16480;SDS011;44634;54.110;12.138;2023-06-10T09:34:08;3.30;;;3.00;;
16480;SDS011;44634;54.110;12.138;2023-06-10T09:36:37;4.37;;;3.00;;
16480;SDS011;44634;54.110;12.138;2023-06-10T09:39:12;8.67;;;3.67;;
16480;SDS011;44634;54.110;12.138;2023-06-10T09:41:41;4.70;;;3.30;;
16480;SDS011;44634;54.110;12.138;2023-06-10T09:44:11;4.20;;;3.20;;
16480;SDS011;44634;54.110;12.138;2023-06-10T09:46:41;6.40;;;3.10;;
16480;SDS011;44634;54.110;12.138;2023-06-10T09:49:09;5.13;;;3.30;;
16480;SDS011;44634;54.110;12.138;2023-06-10T09:51:37;4.17;;;2.80;;
16480;SDS011;44634;54.110;12.138;2023-06-10T09:54:05;10.50;;;8.83;;
16480;SDS011;44634;54.110;12.138;2023-06-10T09:56:34;5.87;;;4.70;;
16480;SDS011;44634;54.110;12.138;2023-06-10T09:59:03;7.57;;;3.40;;
16480;SDS011;44634;54.110;12.138;2023-06-10T10:01:32;3.50;;;3.20;;
16480;SDS011;44634;54.110;12.138;2023-06-10T10:04:00;7.83;;;3.40;;
16480;SDS011;44634;54.110;12.138;2023-06-10T10:06:28;4.17;;;3.43;;
16480;SDS011;44634;54.110;12.138;2023-06-10T10:08:57;5.20;;;3.43;;
16480;SDS011;44634;54.110;12.138;2023-06-10T10:11:25;8.80;;;4.00;;
16480;SDS011;44634;54.110;12.138;2023-06-10T10:13:55;4.07;;;3.23;;
16480;SDS011;44634;54.110;12.138;2023-06-10T10:16:26;3.97;;;3.23;;
16480;SDS011;44634;54.110;12.138;2023-06-10T10:19:01;4.33;;;3.47;;
16480;SDS011;44634;54.110;12.138;2023-06-10T10:21:35;4.73;;;3.70;;
16480;SDS011;44634;54.110;12.138;2023-06-10T10:24:09;5.07;;;3.20;;
16480;SDS011;44634;54.110;12.138;2023-06-10T10:26:43;6.73;;;3.20;;
16480;SDS011;44634;54.110;12.138;2023-06-10T10:29:22;4.57;;;3.80;;
16480;SDS011;44634;54.110;12.138;2023-06-10T10:31:56;3.40;;;3.20;;
16480;SDS011;44634;54.110;12.138;2023-06-10T10:34:29;3.93;;;3.50;;
16480;SDS011;44634;54.110;12.138;2023-06-10T10:37:02;4.77;;;3.33;;
16480;SDS011;44634;54.110;12.138;2023-06-10T10:39:32;4.97;;;3.77;;
16480;SDS011;44634;54.110;12.138;2023-06-10T10:42:01;4.73;;;3.33;;
16480;SDS011;44634;54.110;12.138;2023-06-10T10:44:32;4.43;;;3.50;;
16480;SDS011;44634;54.110;12.138;2023-06-10T10:47:02;4.03;;;3.57;;
16480;SDS011;44634;54.110;12.138;2023-06-10T10:49:31;3.77;;;3.40;;
16480;SDS011;44634;54.110;12.138;2023-06-10T10:52:01;4.03;;;3.73;;
16480;SDS011;44634;54.110;12.138;2023-06-10T10:54:32;3.97;;;3.60;;
16480;SDS011;44634;54.110;12.138;2023-06-10T10:57:10;6.20;;;3.83;;
16480;SDS011;44634;54.110;12.138;2023-06-10T11:02:38;5.37;;;3.37;;
16480;SDS011;44634;54.110;12.138;2023-06-10T11:05:10;3.67;;;3.40;;
16480;SDS011;44634;54.110;12.138;2023-06-10T11:07:39;5.50;;;3.40;;
16480;SDS011;44634;54.110;12.138;2023-06-10T11:10:08;3.60;;;3.30;;
16480;SDS011;44634;54.110;12.138;2023-06-10T11:12:50;5.30;;;3.60;;
16480;SDS011;44634;54.110;12.138;2023-06-10T11:15:22;7.00;;;4.63;;
16480;SDS011;44634;54.110;12.138;2023-06-10T11:18:06;6.27;;;5.70;;
16480;SDS011;44634;54.110;12.138;2023-06-10T11:20:41;5.87;;;3.53;;
16480;SDS011;44634;54.110;12.138;2023-06-10T11:23:40;4.20;;;3.77;;
16480;SDS011;44634;54.110;12.138;2023-06-10T11:29:01;3.70;;;3.40;;
16480;SDS011;44634;54.110;12.138;2023-06-10T11:31:45;4.20;;;3.70;;
16480;SDS011;44634;54.110;12.138;2023-06-10T11:34:23;6.60;;;3.40;;
16480;SDS011;44634;54.110;12.138;2023-06-10T11:36:53;4.13;;;3.53;;
16480;SDS011;44634;54.110;12.138;2023-06-10T11:39:21;4.80;;;3.37;;
16480;SDS011;44634;54.110;12.138;2023-06-10T11:41:52;3.40;;;3.20;;
16480;SDS011;44634;54.110;12.138;2023-06-10T11:44:21;6.07;;;3.00;;
16480;SDS011;44634;54.110;12.138;2023-06-10T11:46:50;4.67;;;3.63;;
16480;SDS011;44634;54.110;12.138;2023-06-10T11:49:20;3.87;;;3.37;;
16480;SDS011;44634;54.110;12.138;2023-06-10T11:51:47;3.70;;;3.40;;
16480;SDS011;44634;54.110;12.138;2023-06-10T11:54:18;3.83;;;3.20;;
16480;SDS011;44634;54.110;12.138;2023-06-10T11:56:46;5.77;;;3.73;;
16480;SDS011;44634;54.110;12.138;2023-06-10T11:59:14;6.73;;;3.20;;
16480;SDS011;44634;54.110;12.138;2023-06-10T12:01:43;3.60;;;3.30;;
16480;SDS011;44634;54.110;12.138;2023-06-10T12:04:15;5.10;;;3.40;;
16480;SDS011;44634;54.110;12.138;2023-06-10T12:06:45;4.90;;;3.67;;
16480;SDS011;44634;54.110;12.138;2023-06-10T12:09:14;3.87;;;3.57;;
16480;SDS011;44634;54.110;12.138;2023-06-10T12:11:52;3.57;;;3.27;;
16480;SDS011;44634;54.110;12.138;2023-06-10T12:17:18;4.00;;;3.67;;
16480;SDS011;44634;54.110;12.138;2023-06-10T12:19:49;4.90;;;3.20;;
16480;SDS011;44634;54.110;12.138;2023-06-10T12:22:18;4.40;;;3.77;;
16480;SDS011;44634;54.110;12.138;2023-06-10T12:24:57;4.33;;;3.90;;
16480;SDS011;44634;54.110;12.138;2023-06-10T12:27:27;4.23;;;3.60;;
16480;SDS011;44634;54.110;12.138;2023-06-10T12:29:56;4.90;;;3.70;;
16480;SDS011;44634;54.110;12.138;2023-06-10T12:32:37;4.10;;;3.40;;
16480;SDS011;44634;54.110;12.138;2023-06-10T12:35:09;4.43;;;3.37;;
16480;SDS011;44634;54.110;12.138;2023-06-10T12:37:39;3.50;;;3.17;;
16480;SDS011;44634;54.110;12.138;2023-06-10T12:40:09;3.43;;;3.10;;
16480;SDS011;44634;54.110;12.138;2023-06-10T12:42:38;3.77;;;3.40;;
16480;SDS011;44634;54.110;12.138;2023-06-10T12:45:06;4.43;;;3.87;;
16480;SDS011;44634;54.110;12.138;2023-06-10T12:47:37;3.93;;;3.30;;
16480;SDS011;44634;54.110;12.138;2023-06-10T12:50:06;3.40;;;3.10;;
16480;SDS011;44634;54.110;12.138;2023-06-10T12:52:37;3.67;;;3.13;;
16480;SDS011;44634;54.110;12.138;2023-06-10T12:55:05;4.10;;;3.73;;
16480;SDS011;44634;54.110;12.138;2023-06-10T12:57:33;5.00;;;3.30;;
16480;SDS011;44634;54.110;12.138;2023-06-10T13:00:01;3.33;;;3.10;;
16480;SDS011;44634;54.110;12.138;2023-06-10T13:02:34;5.57;;;4.00;;
16480;SDS011;44634;54.110;12.138;2023-06-10T13:05:02;3.90;;;3.40;;
16480;SDS011;44634;54.110;12.138;2023-06-10T13:07:30;5.33;;;3.70;;
16480;SDS011;44634;54.110;12.138;2023-06-10T13:10:00;6.53;;;3.33;;
16480;SDS011;44634;54.110;12.138;2023-06-10T13:12:28;3.37;;;3.17;;
16480;SDS011;44634;54.110;12.138;2023-06-10T13:15:13;5.43;;;3.40;;
16480;SDS011;44634;54.110;12.138;2023-06-10T13:17:42;3.13;;;2.90;;
16480;SDS011;44634;54.110;12.138;2023-06-10T13:20:10;5.30;;;3.13;;
16480;SDS011;44634;54.110;12.138;2023-06-10T13:22:38;4.20;;;3.03;;
16480;SDS011;44634;54.110;12.138;2023-06-10T13:25:07;4.67;;;3.30;;
16480;SDS011;44634;54.110;12.138;2023-06-10T13:27:38;5.20;;;3.17;;
16480;SDS011;44634;54.110;12.138;2023-06-10T13:30:06;3.77;;;3.43;;
16480;SDS011;44634;54.110;12.138;2023-06-10T13:32:36;3.90;;;3.20;;
16480;SDS011;44634;54.110;12.138;2023-06-10T13:35:04;4.43;;;2.73;;
16480;SDS011;44634;54.110;12.138;2023-06-10T13:37:34;4.97;;;3.20;;
16480;SDS011;44634;54.110;12.138;2023-06-10T13:40:03;5.17;;;3.20;;
16480;SDS011;44634;54.110;12.138;2023-06-10T13:42:34;3.10;;;2.90;;
16480;SDS011;44634;54.110;12.138;2023-06-10T13:45:02;3.50;;;3.20;;
16480;SDS011;44634;54.110;12.138;2023-06-10T13:47:30;3.40;;;3.10;;
16480;SDS011;44634;54.110;12.138;2023-06-10T13:49:58;4.07;;;3.23;;
16480;SDS011;44634;54.110;12.138;2023-06-10T13:52:26;4.33;;;3.10;;
16480;SDS011;44634;54.110;12.138;2023-06-10T13:54:54;5.47;;;3.20;;
16480;SDS011;44634;54.110;12.138;2023-06-10T13:57:22;3.23;;;3.00;;
16480;SDS011;44634;54.110;12.138;2023-06-10T13:59:51;3.67;;;3.37;;
16480;SDS011;44634;54.110;12.138;2023-06-10T14:02:19;5.03;;;3.30;;
16480;SDS011;44634;54.110;12.138;2023-06-10T14:04:47;5.23;;;3.73;;
16480;SDS011;44634;54.110;12.138;2023-06-10T14:07:15;3.70;;;3.30;;
16480;SDS011;44634;54.110;12.138;2023-06-10T14:09:43;4.23;;;3.00;;
16480;SDS011;44634;54.110;12.138;2023-06-10T14:12:11;5.63;;;3.63;;
16480;SDS011;44634;54.110;12.138;2023-06-10T14:14:39;6.23;;;3.17;;
16480;SDS011;44634;54.110;12.138;2023-06-10T14:17:10;6.97;;;3.10;;
16480;SDS011;44634;54.110;12.138;2023-06-10T14:19:38;5.30;;;2.90;;
16480;SDS011;44634;54.110;12.138;2023-06-10T14:22:06;3.23;;;2.90;;
16480;SDS011;44634;54.110;12.138;2023-06-10T14:24:34;3.40;;;3.07;;
16480;SDS011;44634;54.110;12.138;2023-06-10T14:27:03;6.87;;;3.30;;
16480;SDS011;44634;54.110;12.138;2023-06-10T14:29:31;4.30;;;3.00;;
16480;SDS011;44634;54.110;12.138;2023-06-10T14:32:00;4.47;;;3.33;;
16480;SDS011;44634;54.110;12.138;2023-06-10T14:34:32;5.47;;;3.20;;
16480;SDS011;44634;54.110;12.138;2023-06-10T14:37:00;3.63;;;3.27;;
16480;SDS011;44634;54.110;12.138;2023-06-10T14:39:29;3.43;;;3.00;;
16480;SDS011;44634;54.110;12.138;2023-06-10T14:41:57;3.43;;;3.13;;
16480;SDS011;44634;54.110;12.138;2023-06-10T14:44:25;4.47;;;3.10;;
16480;SDS011;44634;54.110;12.138;2023-06-10T14:46:52;3.43;;;3.13;;
16480;SDS011;44634;54.110;12.138;2023-06-10T14:49:20;4.80;;;3.37;;
16480;SDS011;44634;54.110;12.138;2023-06-10T14:51:49;2.93;;;2.73;;
16480;SDS011;44634;54.110;12.138;2023-06-10T14:54:17;3.47;;;3.20;;